Appomattox, VA

7:52 AM EST on February 10, 2016 (GMT -0500)
APRSWXNET | | Change Station
CLOSE
Current Station
Personal Weather Station
Location: Appomattox, VA
Elevation: 839 ft
Nearby Weather Stations

Elev 839 ft 37.36 °N, 78.83 °W | Updated 42 minutes ago

Clear
Clear
24 °F
Feels Like 24 °F
N
0
Wind Variable Wind from West
Gusts 7.0 mph

Today
High -- | Low -- °F
--% Chance of Precip.
Yesterday
High -- | Low -- °F
Precip. -- in
Pressure 29.84 in
Visibility 10.0 miles
Clouds Clear
Windchill 24 °F
Dew Point 14 °F
Humidity 64%
Rainfall in
Snow Depth Not available.
7:10 AM 5:49 PM
Waxing Crescent, 5% visible
METAR KLYH 101154Z 27003KT 10SM CLR M05/M11 A2982 RMK AO2 SLP105 T10501111 11039 21056 53018
Pressure 29.84 in
Visibility 10.0 miles
Clouds Clear
Windchill 24 °F
Dew Point 14 °F
Humidity 64%
Rainfall in
Snow Depth Not available.
7:10 AM 5:49 PM
Waxing Crescent, 5% visible
METAR KLYH 101154Z 27003KT 10SM CLR M05/M11 A2982 RMK AO2 SLP105 T10501111 11039 21056 53018

10-Day Weather Forecast

Almanac

Astronomy

Feb. 10, 2016 Rise Set
Actual Time
Civil Twilight
Nautical Twilight
Astronomical Twilight
Moon
Length of Visible Light
Length of Day
Tomorrow will be .
, % of the Moon is Illuminated

Today's Extremes

State Highs State Lows

Community

WunderPhotos

Upload Photos

1,891,837 photos uploaded!

WunderBlog® & News

Nearby

Air Quality

  Air Quality AQ Index Pollutant
Not available.

Snow Depth

Station Depth Elevation

Earthquake Activity

City Distance Mag. Time & Date
Minimum magnitude displayed is 2.5.

Coastal Water Temperatures

Place Temperature

Stations

Nearby Weather Stations

Station Location Temp. Windchill Dew Point Humidity Wind Precip. Elev Updated Type
                   

Watches & Warnings

There are currently no watches in effect.